Tara — FVNM — position and weather

sailwx.info

Track history (hours):
 
Tides and Currents Weather Stations Pressure Air Temp Water Temp Dewpoint Dewpoint Depression Visibility Wind Speed Wind Dir Waves Ship Positions

Oceanographic research ship Tara (France)

Ex Antarctica.

Ship's website: http://www.taraexpeditions.org/site/index.php?id_lang_global_new=uk

Last reported at 2016-Jan-12 16:00 UTC. Time now 2016-Feb-14 12:45 UTC.
Position N 47°42' W 003°24'.
Warning: this ship's position is 32 days out of date.

Length 36 m; beam 10 m.

Wind from 320 at 14 knots

Water temperature 12.0 ° C

Date/timePositionNaut miles runAvg speedWind from/ knotsBaromVisibWave heightAir tempDewpointWater temp
2016-Jan-12 16:00N 47°42' W 003°24'8 8.1 320 / 14 12.0
2016-Jan-12 15:00N 47°42' W 003°36'17 8.6 300 / 27 12.5
2016-Jan-12 13:00N 47°36' W 004°00'1010.1 310 / 30 13.2
2016-Jan-12 12:00N 47°30' W 004°12'8 8.1 320 / 32 13.2
2016-Jan-12 11:00N 47°30' W 004°24'4 4.1 320 / 29 13.0
2016-Jan-12 10:00N 47°30' W 004°30'8 8.1 310 / 28 13.0
2016-Jan-12 09:00N 47°30' W 004°42'8 8.1 300 / 34 13.0
2016-Jan-12 08:00N 47°30' W 004°54'7 7.2 280 / 26 12.9
2016-Jan-12 07:00N 47°36' W 005°00'18 9.2 310 / 29 12.9
2016-Jan-12 05:00N 47°54' W 005°06'7 7.2 280 / 32 13.0
2016-Jan-12 04:00N 48°00' W 005°12'1312.7 270 / 28 13.0
2016-Jan-12 03:00N 48°12' W 005°18'7 7.2 270 / 32 13.0
2016-Jan-12 02:00N 48°18' W 005°24'7 7.2 290 / 28 13.0
2016-Jan-12 01:00N 48°24' W 005°30'7 7.2 290 / 30 12.9
2016-Jan-12 00:00N 48°30' W 005°24'7 7.2 290 / 33 12.9
2016-Jan-11 23:00N 48°36' W 005°18'1414.4 290 / 35 12.9
2016-Jan-11 22:00N 48°48' W 005°06'7 7.2 290 / 35 12.9
2016-Jan-11 21:00N 48°54' W 005°00'8 7.9 290 / 34 12.9
2016-Jan-11 20:00N 48°54' W 004°48'7 7.2 290 / 37 12.9
2016-Jan-11 19:00N 49°00' W 004°42'0 0.0 300 / 40 12.9
2016-Jan-11 18:00N 49°00' W 004°42'7 7.2 290 / 40 12.9
2016-Jan-11 17:00N 49°06' W 004°36'6 6.0 280 / 36 12.9
2016-Jan-11 16:00N 49°00' W 004°36'4 3.9 280 / 32 12.9
2016-Jan-11 15:00N 49°00' W 004°30'6 6.0 290 / 26 12.9
2016-Jan-11 14:00N 48°54' W 004°30'7 7.2 290 / 32 12.9
2016-Jan-11 13:00N 48°48' W 004°24'7 7.2 270 / 37 12.9
2016-Jan-11 12:00N 48°54' W 004°18'7 7.2 240 / 30 12.9
2016-Jan-11 11:00N 49°00' W 004°12'7 7.2 260 / 30 12.9
2016-Jan-11 10:00N 49°06' W 004°06'13 6.6 260 / 26 12.9
2016-Jan-11 08:00N 49°12' W 003°48'6 6.0 270 / 26 12.7
2016-Jan-11 07:00N 49°06' W 003°48'4 3.9 270 / 23 12.7
2016-Jan-11 06:00N 49°06' W 003°42'6 6.0 270 / 24 12.7
2016-Jan-11 05:00N 49°12' W 003°42'6 6.0 260 / 25 12.9
2016-Jan-11 04:00N 49°18' W 003°42'4 3.9 230 / 28 12.9
2016-Jan-11 03:00N 49°18' W 003°36'4 3.9 220 / 26 12.9
2016-Jan-11 02:00N 49°18' W 003°30'6 6.0 220 / 31 12.9
2016-Jan-11 01:00N 49°24' W 003°30'7 7.2 190 / 29 12.9
2016-Jan-11 00:00N 49°30' W 003°24'8 7.8 210 / 35 12.9
2016-Jan-10 23:00N 49°30' W 003°12'4 3.9 200 / 29 12.7
2016-Jan-10 22:00N 49°30' W 003°06'7 7.2 190 / 29 12.7
2016-Jan-10 21:00N 49°36' W 003°00'8 7.8 190 / 23 12.7
2016-Jan-10 20:00N 49°36' W 002°48'4 3.9 210 / 33 12.7
2016-Jan-10 19:00N 49°36' W 002°42'4 3.9 190 / 27 12.7
2016-Jan-10 18:00N 49°36' W 002°36'6 6.0 210 / 25 12.4
2016-Jan-10 17:00N 49°42' W 002°36'6 6.0 240 / 21 12.4
2016-Jan-10 16:00N 49°48' W 002°36'8 7.7 250 / 22 12.7
2016-Jan-10 15:00N 49°48' W 002°24'8 7.7 230 / 28 12.5
2016-Jan-10 14:00N 49°48' W 002°12'1313.1 220 / 25 12.4
2016-Jan-10 13:00N 49°42' W 001°54'8 7.8 230 / 16 11.7
2016-Jan-10 12:00N 49°42' W 001°42'0 0.0 190 / 14 11.5
2016-Jan-10 04:00N 49°42' W 001°42'4 3.9 210 / 23 11.7
2016-Jan-10 03:00N 49°42' W 001°48'10 4.9 210 / 23 11.9
2016-Jan-10 01:00N 49°48' W 002°00'4 3.9 240 / 32 11.7
2016-Jan-10 00:00N 49°48' W 002°06'8 7.7 240 / 34 12.7
2016-Jan-09 23:00N 49°48' W 002°18'0 0.0 240 / 35 12.5
2016-Jan-09 22:00N 49°48' W 002°18'4 3.9 240 / 32 12.7
2016-Jan-09 21:00N 49°48' W 002°12'0 0.0 230 / 32 12.7
2016-Jan-09 20:00N 49°48' W 002°12'0 0.0 230 / 36 12.7
2016-Jan-09 18:00N 49°48' W 002°12'4 3.9 200 / 37 12.9
2016-Jan-09 17:00N 49°48' W 002°06'4 3.9 180 / 32 12.5
2016-Jan-09 16:00N 49°48' W 002°00'4 3.9 190 / 31 12.0
2016-Jan-09 15:00N 49°48' W 001°54'2311.6 180 / 30 12.2
2016-Jan-09 13:00N 49°48' W 001°18'1313.1 180 / 25 11.9
2016-Jan-09 12:00N 49°42' W 001°00'10 9.8 190 / 28 11.9
2016-Jan-09 11:00N 49°36' W 000°48'8 7.8 190 / 26 12.2
2016-Jan-09 10:00N 49°36' W 000°36'10 9.8 170 / 20 12.0
2016-Jan-09 09:00N 49°30' W 000°24'8 7.8 180 / 21 11.7
2016-Jan-09 08:00N 49°30' W 000°12'8 7.8 180 / 21 11.4
2016-Jan-09 07:00N 49°30' E 000°00'   180 / 16 10.9
Track history (hours):
 
Tides and Currents Weather Stations Pressure Air Temp Water Temp Dewpoint Dewpoint Depression Visibility Wind Speed Wind Dir Waves Ship Positions

Oceanographic research ship Tara (France)

Ex Antarctica.

Ship's website: http://www.taraexpeditions.org/site/index.php?id_lang_global_new=uk

Last reported at 2016-Jan-12 16:00 UTC. Time now 2016-Feb-14 12:45 UTC.
Position N 47°42' W 003°24'.
Warning: this ship's position is 32 days out of date.

Length 36 m; beam 10 m.

Wind from 320 at 14 knots

Water temperature 12.0 ° C

Date/timePositionNaut miles runAvg speedWind from/ knotsBaromVisibWave heightAir tempDewpointWater temp
2016-Jan-12 16:00N 47°42' W 003°24'8 8.1 320 / 14 12.0
2016-Jan-12 15:00N 47°42' W 003°36'17 8.6 300 / 27 12.5
2016-Jan-12 13:00N 47°36' W 004°00'1010.1 310 / 30 13.2
2016-Jan-12 12:00N 47°30' W 004°12'8 8.1 320 / 32 13.2
2016-Jan-12 11:00N 47°30' W 004°24'4 4.1 320 / 29 13.0
2016-Jan-12 10:00N 47°30' W 004°30'8 8.1 310 / 28 13.0
2016-Jan-12 09:00N 47°30' W 004°42'8 8.1 300 / 34 13.0
2016-Jan-12 08:00N 47°30' W 004°54'7 7.2 280 / 26 12.9
2016-Jan-12 07:00N 47°36' W 005°00'18 9.2 310 / 29 12.9
2016-Jan-12 05:00N 47°54' W 005°06'7 7.2 280 / 32 13.0
2016-Jan-12 04:00N 48°00' W 005°12'1312.7 270 / 28 13.0
2016-Jan-12 03:00N 48°12' W 005°18'7 7.2 270 / 32 13.0
2016-Jan-12 02:00N 48°18' W 005°24'7 7.2 290 / 28 13.0
2016-Jan-12 01:00N 48°24' W 005°30'7 7.2 290 / 30 12.9
2016-Jan-12 00:00N 48°30' W 005°24'7 7.2 290 / 33 12.9
2016-Jan-11 23:00N 48°36' W 005°18'1414.4 290 / 35 12.9
2016-Jan-11 22:00N 48°48' W 005°06'7 7.2 290 / 35 12.9
2016-Jan-11 21:00N 48°54' W 005°00'8 7.9 290 / 34 12.9
2016-Jan-11 20:00N 48°54' W 004°48'7 7.2 290 / 37 12.9
2016-Jan-11 19:00N 49°00' W 004°42'0 0.0 300 / 40 12.9
2016-Jan-11 18:00N 49°00' W 004°42'7 7.2 290 / 40 12.9
2016-Jan-11 17:00N 49°06' W 004°36'6 6.0 280 / 36 12.9
2016-Jan-11 16:00N 49°00' W 004°36'4 3.9 280 / 32 12.9
2016-Jan-11 15:00N 49°00' W 004°30'6 6.0 290 / 26 12.9
2016-Jan-11 14:00N 48°54' W 004°30'7 7.2 290 / 32 12.9
2016-Jan-11 13:00N 48°48' W 004°24'7 7.2 270 / 37 12.9
2016-Jan-11 12:00N 48°54' W 004°18'7 7.2 240 / 30 12.9
2016-Jan-11 11:00N 49°00' W 004°12'7 7.2 260 / 30 12.9
2016-Jan-11 10:00N 49°06' W 004°06'13 6.6 260 / 26 12.9
2016-Jan-11 08:00N 49°12' W 003°48'6 6.0 270 / 26 12.7
2016-Jan-11 07:00N 49°06' W 003°48'4 3.9 270 / 23 12.7
2016-Jan-11 06:00N 49°06' W 003°42'6 6.0 270 / 24 12.7
2016-Jan-11 05:00N 49°12' W 003°42'6 6.0 260 / 25 12.9
2016-Jan-11 04:00N 49°18' W 003°42'4 3.9 230 / 28 12.9
2016-Jan-11 03:00N 49°18' W 003°36'4 3.9 220 / 26 12.9
2016-Jan-11 02:00N 49°18' W 003°30'6 6.0 220 / 31 12.9
2016-Jan-11 01:00N 49°24' W 003°30'7 7.2 190 / 29 12.9
2016-Jan-11 00:00N 49°30' W 003°24'8 7.8 210 / 35 12.9
2016-Jan-10 23:00N 49°30' W 003°12'4 3.9 200 / 29 12.7
2016-Jan-10 22:00N 49°30' W 003°06'7 7.2 190 / 29 12.7
2016-Jan-10 21:00N 49°36' W 003°00'8 7.8 190 / 23 12.7
2016-Jan-10 20:00N 49°36' W 002°48'4 3.9 210 / 33 12.7
2016-Jan-10 19:00N 49°36' W 002°42'4 3.9 190 / 27 12.7
2016-Jan-10 18:00N 49°36' W 002°36'6 6.0 210 / 25 12.4
2016-Jan-10 17:00N 49°42' W 002°36'6 6.0 240 / 21 12.4
2016-Jan-10 16:00N 49°48' W 002°36'8 7.7 250 / 22 12.7
2016-Jan-10 15:00N 49°48' W 002°24'8 7.7 230 / 28 12.5
2016-Jan-10 14:00N 49°48' W 002°12'1313.1 220 / 25 12.4
2016-Jan-10 13:00N 49°42' W 001°54'8 7.8 230 / 16 11.7
2016-Jan-10 12:00N 49°42' W 001°42'0 0.0 190 / 14 11.5
2016-Jan-10 04:00N 49°42' W 001°42'4 3.9 210 / 23 11.7
2016-Jan-10 03:00N 49°42' W 001°48'10 4.9 210 / 23 11.9
2016-Jan-10 01:00N 49°48' W 002°00'4 3.9 240 / 32 11.7
2016-Jan-10 00:00N 49°48' W 002°06'8 7.7 240 / 34 12.7
2016-Jan-09 23:00N 49°48' W 002°18'0 0.0 240 / 35 12.5
2016-Jan-09 22:00N 49°48' W 002°18'4 3.9 240 / 32 12.7
2016-Jan-09 21:00N 49°48' W 002°12'0 0.0 230 / 32 12.7
2016-Jan-09 20:00N 49°48' W 002°12'0 0.0 230 / 36 12.7
2016-Jan-09 18:00N 49°48' W 002°12'4 3.9 200 / 37 12.9
2016-Jan-09 17:00N 49°48' W 002°06'4 3.9 180 / 32 12.5
2016-Jan-09 16:00N 49°48' W 002°00'4 3.9 190 / 31 12.0
2016-Jan-09 15:00N 49°48' W 001°54'2311.6 180 / 30 12.2
2016-Jan-09 13:00N 49°48' W 001°18'1313.1 180 / 25 11.9
2016-Jan-09 12:00N 49°42' W 001°00'10 9.8 190 / 28 11.9
2016-Jan-09 11:00N 49°36' W 000°48'8 7.8 190 / 26 12.2
2016-Jan-09 10:00N 49°36' W 000°36'10 9.8 170 / 20 12.0
2016-Jan-09 09:00N 49°30' W 000°24'8 7.8 180 / 21 11.7
2016-Jan-09 08:00N 49°30' W 000°12'8 7.8 180 / 21 11.4
2016-Jan-09 07:00N 49°30' E 000°00'   180 / 16 10.9

Dump ship's entire track history